Umar1 — 9HA2498 — position and weather

sailwx.info

Track history (hours):
 
Tides and Currents Weather Stations Pressure Air Temp Water Temp Dewpoint Dewpoint Depression Visibility Wind Speed Wind Dir Waves Ship Positions

Umar1

Last reported at 2017-Apr-21 21:17 UTC. Time now 2017-Apr-24 05:31 UTC.
Position N 39°21' W 009°51'.

Length 100 m; draft 5 m.

Type: Tanker. MMSI: 248751000.

Date/timePositionNaut miles runAvg speedWind from/ knotsBaromVisibWave heightAir tempDewpointWater temp
2017-Apr-21 21:17N 39°21' W 009°51'2 8.7
2017-Apr-21 21:00N 39°19' W 009°51'1 1.2
2017-Apr-21 20:30N 39°18' W 009°51'5 9.0
2017-Apr-21 20:00N 39°13' W 009°51'510.4
2017-Apr-21 19:30N 39°08' W 009°52'510.7
2017-Apr-21 19:00N 39°03' W 009°52'510.5
2017-Apr-21 18:30N 38°58' W 009°52'510.5
2017-Apr-21 18:00N 38°52' W 009°52'510.2
2017-Apr-21 17:30N 38°47' W 009°51'510.5
2017-Apr-21 17:00N 38°42' W 009°51'510.9
2017-Apr-21 16:30N 38°37' W 009°50'510.7
2017-Apr-21 16:00N 38°31' W 009°50'510.6
2017-Apr-21 15:30N 38°26' W 009°49'510.7
2017-Apr-21 15:00N 38°21' W 009°49'  
2017-Apr-18 07:15N 35°57' W 005°43'910.5
2017-Apr-18 06:22N 35°58' W 005°32'4 9.9
2017-Apr-18 06:00N 35°59' W 005°27'4 8.9
2017-Apr-18 05:30N 36°02' W 005°23'510.2
2017-Apr-18 05:00N 36°07' W 005°24'3 4.1
2017-Apr-18 04:20N 36°10' W 005°23'0 0.0
2017-Apr-18 03:59N 36°10' W 005°23'0 0.0
2017-Apr-18 03:29N 36°10' W 005°23'0 0.0
2017-Apr-18 02:56N 36°10' W 005°23'0 0.1
2017-Apr-18 02:29N 36°10' W 005°23'0 0.0
2017-Apr-18 01:59N 36°10' W 005°23'0 0.1
2017-Apr-18 01:29N 36°10' W 005°23'0 0.1
2017-Apr-18 00:56N 36°10' W 005°23'0 0.0
2017-Apr-18 00:29N 36°10' W 005°23'0 0.0
2017-Apr-17 23:56N 36°10' W 005°23'0 0.0
2017-Apr-17 23:26N 36°10' W 005°23'0 0.1
2017-Apr-17 22:59N 36°10' W 005°23'0 0.0
2017-Apr-17 22:26N 36°10' W 005°23'0 0.1
2017-Apr-17 21:59N 36°10' W 005°23'0 0.0
2017-Apr-17 21:29N 36°10' W 005°23'0 0.1
2017-Apr-17 20:59N 36°10' W 005°23'0 0.1
2017-Apr-17 20:29N 36°10' W 005°23'0 0.9
2017-Apr-17 20:00N 36°10' W 005°23'4 7.5
2017-Apr-17 19:30N 36°06' W 005°24'  
2017-Apr-14 12:50N 41°06' E 001°17'26 4.2
2017-Apr-14 06:44N 40°43' E 001°32'310.9
2017-Apr-14 06:30N 40°41' E 001°33'611.2
2017-Apr-14 06:01N 40°35' E 001°34'611.3
2017-Apr-14 05:30N 40°30' E 001°34'511.0
2017-Apr-14 05:01N 40°24' E 001°34'611.0
2017-Apr-14 04:30N 40°18' E 001°34'4 7.3
2017-Apr-14 04:00N 40°16' E 001°31'4 8.2
2017-Apr-14 03:30N 40°15' E 001°26'4 8.3
2017-Apr-14 02:59N 40°13' E 001°21'4 8.3
2017-Apr-14 02:29N 40°12' E 001°15'4 8.1
2017-Apr-14 01:56N 40°11' E 001°10'6 9.0
2017-Apr-14 01:13N 40°08' E 001°02'2 9.7
2017-Apr-14 01:00N 40°08' E 000°59'510.0
2017-Apr-14 00:30N 40°06' E 000°53'  
Track history (hours):
 
Tides and Currents Weather Stations Pressure Air Temp Water Temp Dewpoint Dewpoint Depression Visibility Wind Speed Wind Dir Waves Ship Positions

Umar1

Last reported at 2017-Apr-21 21:17 UTC. Time now 2017-Apr-24 05:31 UTC.
Position N 39°21' W 009°51'.

Length 100 m; draft 5 m.

Type: Tanker. MMSI: 248751000.

Date/timePositionNaut miles runAvg speedWind from/ knotsBaromVisibWave heightAir tempDewpointWater temp
2017-Apr-21 21:17N 39°21' W 009°51'2 8.7
2017-Apr-21 21:00N 39°19' W 009°51'1 1.2
2017-Apr-21 20:30N 39°18' W 009°51'5 9.0
2017-Apr-21 20:00N 39°13' W 009°51'510.4
2017-Apr-21 19:30N 39°08' W 009°52'510.7
2017-Apr-21 19:00N 39°03' W 009°52'510.5
2017-Apr-21 18:30N 38°58' W 009°52'510.5
2017-Apr-21 18:00N 38°52' W 009°52'510.2
2017-Apr-21 17:30N 38°47' W 009°51'510.5
2017-Apr-21 17:00N 38°42' W 009°51'510.9
2017-Apr-21 16:30N 38°37' W 009°50'510.7
2017-Apr-21 16:00N 38°31' W 009°50'510.6
2017-Apr-21 15:30N 38°26' W 009°49'510.7
2017-Apr-21 15:00N 38°21' W 009°49'  
2017-Apr-18 07:15N 35°57' W 005°43'910.5
2017-Apr-18 06:22N 35°58' W 005°32'4 9.9
2017-Apr-18 06:00N 35°59' W 005°27'4 8.9
2017-Apr-18 05:30N 36°02' W 005°23'510.2
2017-Apr-18 05:00N 36°07' W 005°24'3 4.1
2017-Apr-18 04:20N 36°10' W 005°23'0 0.0
2017-Apr-18 03:59N 36°10' W 005°23'0 0.0
2017-Apr-18 03:29N 36°10' W 005°23'0 0.0
2017-Apr-18 02:56N 36°10' W 005°23'0 0.1
2017-Apr-18 02:29N 36°10' W 005°23'0 0.0
2017-Apr-18 01:59N 36°10' W 005°23'0 0.1
2017-Apr-18 01:29N 36°10' W 005°23'0 0.1
2017-Apr-18 00:56N 36°10' W 005°23'0 0.0
2017-Apr-18 00:29N 36°10' W 005°23'0 0.0
2017-Apr-17 23:56N 36°10' W 005°23'0 0.0
2017-Apr-17 23:26N 36°10' W 005°23'0 0.1
2017-Apr-17 22:59N 36°10' W 005°23'0 0.0
2017-Apr-17 22:26N 36°10' W 005°23'0 0.1
2017-Apr-17 21:59N 36°10' W 005°23'0 0.0
2017-Apr-17 21:29N 36°10' W 005°23'0 0.1
2017-Apr-17 20:59N 36°10' W 005°23'0 0.1
2017-Apr-17 20:29N 36°10' W 005°23'0 0.9
2017-Apr-17 20:00N 36°10' W 005°23'4 7.5
2017-Apr-17 19:30N 36°06' W 005°24'  
2017-Apr-14 12:50N 41°06' E 001°17'26 4.2
2017-Apr-14 06:44N 40°43' E 001°32'310.9
2017-Apr-14 06:30N 40°41' E 001°33'611.2
2017-Apr-14 06:01N 40°35' E 001°34'611.3
2017-Apr-14 05:30N 40°30' E 001°34'511.0
2017-Apr-14 05:01N 40°24' E 001°34'611.0
2017-Apr-14 04:30N 40°18' E 001°34'4 7.3
2017-Apr-14 04:00N 40°16' E 001°31'4 8.2
2017-Apr-14 03:30N 40°15' E 001°26'4 8.3
2017-Apr-14 02:59N 40°13' E 001°21'4 8.3
2017-Apr-14 02:29N 40°12' E 001°15'4 8.1
2017-Apr-14 01:56N 40°11' E 001°10'6 9.0
2017-Apr-14 01:13N 40°08' E 001°02'2 9.7
2017-Apr-14 01:00N 40°08' E 000°59'510.0
2017-Apr-14 00:30N 40°06' E 000°53'  

Dump ship's entire track history